Terminal Aerodrome Forecast
Issued by NWS

Home | Current Version | Previous Version | Text Only | Print | Product List | Glossary On
Versions: 1 2 3 4 5 6 7 8 9 10 11 12 13 14 15
893
FTUS44 KMAF 230305 AAA
TAFHOB
TAF AMD
KHOB 230305Z 2303/2324 13010KT P6SM FEW150
     FM230400 13015G21KT P6SM FEW150
     FM230900 15015G21KT P6SM OVC010
     FM231700 18020G30KT P6SM FEW100=

USA.gov is the U.S. government's official web portal to all federal, state and local government web resources and services.